sensor_id;sensor_type;location;lat;lon;timestamp;pressure;altitude;pressure_sealevel;temperature;humidity
55271;BME280;41132;47.162;9.470;2023-07-08T00:00:45;96600.09;;;21.30;60.15
55271;BME280;41132;47.162;9.470;2023-07-08T00:03:13;96610.69;;;21.43;57.57
55271;BME280;41132;47.162;9.470;2023-07-08T00:05:38;96585.97;;;21.66;46.96
55271;BME280;41132;47.162;9.470;2023-07-08T00:08:04;96577.59;;;21.81;46.12
55271;BME280;41132;47.162;9.470;2023-07-08T00:10:30;96582.69;;;22.01;45.25
55271;BME280;41132;47.162;9.470;2023-07-08T00:12:56;96582.03;;;22.17;43.70
55271;BME280;41132;47.162;9.470;2023-07-08T00:15:27;96591.81;;;22.54;44.47
55271;BME280;41132;47.162;9.470;2023-07-08T00:17:53;96583.59;;;22.67;41.50
55271;BME280;41132;47.162;9.470;2023-07-08T00:20:29;96567.41;;;22.62;43.14
55271;BME280;41132;47.162;9.470;2023-07-08T00:22:56;96602.81;;;22.87;41.88
55271;BME280;41132;47.162;9.470;2023-07-08T00:25:22;96565.81;;;22.84;41.29
55271;BME280;41132;47.162;9.470;2023-07-08T00:27:48;96581.13;;;23.07;41.07
55271;BME280;41132;47.162;9.470;2023-07-08T00:30:19;96587.97;;;23.15;41.82
55271;BME280;41132;47.162;9.470;2023-07-08T00:32:44;96599.59;;;23.21;40.48
55271;BME280;41132;47.162;9.470;2023-07-08T00:35:10;96590.53;;;23.22;40.20
55271;BME280;41132;47.162;9.470;2023-07-08T00:37:35;96565.94;;;23.25;39.51
55271;BME280;41132;47.162;9.470;2023-07-08T00:40:02;96586.91;;;23.40;40.79
55271;BME280;41132;47.162;9.470;2023-07-08T00:42:37;96594.00;;;23.34;39.96
55271;BME280;41132;47.162;9.470;2023-07-08T00:45:17;96596.31;;;23.54;38.77
55271;BME280;41132;47.162;9.470;2023-07-08T00:47:43;96576.84;;;23.59;37.89
55271;BME280;41132;47.162;9.470;2023-07-08T00:50:11;96555.09;;;23.43;38.68
55271;BME280;41132;47.162;9.470;2023-07-08T00:52:36;96575.69;;;23.54;39.46
55271;BME280;41132;47.162;9.470;2023-07-08T00:55:06;96580.47;;;23.64;38.82
55271;BME280;41132;47.162;9.470;2023-07-08T00:57:35;96567.78;;;23.60;39.36
55271;BME280;41132;47.162;9.470;2023-07-08T01:00:08;96583.38;;;23.74;39.91
55271;BME280;41132;47.162;9.470;2023-07-08T01:02:39;96589.06;;;23.78;38.59
55271;BME280;41132;47.162;9.470;2023-07-08T01:05:12;96578.34;;;23.78;38.61
55271;BME280;41132;47.162;9.470;2023-07-08T01:07:42;96584.63;;;23.84;39.03
55271;BME280;41132;47.162;9.470;2023-07-08T01:10:12;96567.63;;;23.66;39.10
55271;BME280;41132;47.162;9.470;2023-07-08T01:12:46;96575.19;;;23.69;38.58
55271;BME280;41132;47.162;9.470;2023-07-08T01:15:13;96573.91;;;23.72;38.57
55271;BME280;41132;47.162;9.470;2023-07-08T01:17:40;96580.06;;;23.72;39.53
55271;BME280;41132;47.162;9.470;2023-07-08T01:20:08;96584.63;;;23.72;38.37
55271;BME280;41132;47.162;9.470;2023-07-08T01:22:38;96582.31;;;23.75;38.37
55271;BME280;41132;47.162;9.470;2023-07-08T01:25:06;96567.16;;;23.69;39.94
55271;BME280;41132;47.162;9.470;2023-07-08T01:27:36;96574.97;;;23.71;39.51
55271;BME280;41132;47.162;9.470;2023-07-08T01:30:03;96581.84;;;23.79;39.87
55271;BME280;41132;47.162;9.470;2023-07-08T01:32:29;96586.50;;;23.71;39.59
55271;BME280;41132;47.162;9.470;2023-07-08T01:34:59;96584.41;;;23.73;38.93
55271;BME280;41132;47.162;9.470;2023-07-08T01:38:02;96582.31;;;23.75;39.57
55271;BME280;41132;47.162;9.470;2023-07-08T01:40:31;96586.38;;;23.66;39.76
55271;BME280;41132;47.162;9.470;2023-07-08T01:42:58;96581.34;;;23.82;38.15
55271;BME280;41132;47.162;9.470;2023-07-08T01:45:26;96587.78;;;23.81;39.66
55271;BME280;41132;47.162;9.470;2023-07-08T01:48:13;96600.25;;;23.75;38.82
55271;BME280;41132;47.162;9.470;2023-07-08T01:50:43;96594.75;;;23.82;38.17
55271;BME280;41132;47.162;9.470;2023-07-08T01:53:14;96601.50;;;23.84;38.54
55271;BME280;41132;47.162;9.470;2023-07-08T01:55:39;96586.50;;;23.83;36.96
55271;BME280;41132;47.162;9.470;2023-07-08T01:58:04;96611.41;;;23.84;38.51
55271;BME280;41132;47.162;9.470;2023-07-08T02:00:30;96599.53;;;23.80;37.77
55271;BME280;41132;47.162;9.470;2023-07-08T02:02:55;96605.81;;;23.85;39.09
55271;BME280;41132;47.162;9.470;2023-07-08T02:05:22;96608.06;;;23.76;40.31
55271;BME280;41132;47.162;9.470;2023-07-08T02:07:48;96622.13;;;23.84;38.81
55271;BME280;41132;47.162;9.470;2023-07-08T02:10:13;96604.09;;;23.79;39.71
55271;BME280;41132;47.162;9.470;2023-07-08T02:12:38;96612.66;;;23.93;37.98
55271;BME280;41132;47.162;9.470;2023-07-08T02:15:04;96607.75;;;24.02;38.90
55271;BME280;41132;47.162;9.470;2023-07-08T02:17:30;96607.75;;;24.02;38.07
55271;BME280;41132;47.162;9.470;2023-07-08T02:19:56;96608.47;;;23.97;38.58
55271;BME280;41132;47.162;9.470;2023-07-08T02:22:21;96604.16;;;23.96;37.50
55271;BME280;41132;47.162;9.470;2023-07-08T02:24:47;96615.22;;;24.00;37.82
55271;BME280;41132;47.162;9.470;2023-07-08T02:27:13;96606.84;;;23.96;39.07
55271;BME280;41132;47.162;9.470;2023-07-08T02:29:38;96610.78;;;23.93;38.95
55271;BME280;41132;47.162;9.470;2023-07-08T02:32:04;96618.47;;;24.02;38.89
55271;BME280;41132;47.162;9.470;2023-07-08T02:34:30;96591.63;;;23.85;38.67
55271;BME280;41132;47.162;9.470;2023-07-08T02:36:55;96602.22;;;23.91;38.51
55271;BME280;41132;47.162;9.470;2023-07-08T02:39:22;96620.38;;;23.89;39.24
55271;BME280;41132;47.162;9.470;2023-07-08T02:41:47;96636.22;;;23.91;39.31
55271;BME280;41132;47.162;9.470;2023-07-08T02:44:12;96629.94;;;23.85;38.13
55271;BME280;41132;47.162;9.470;2023-07-08T02:46:38;96642.84;;;23.88;38.33
55271;BME280;41132;47.162;9.470;2023-07-08T02:49:03;96620.25;;;23.72;38.82
55271;BME280;41132;47.162;9.470;2023-07-08T02:51:29;96647.19;;;23.89;37.33
55271;BME280;41132;47.162;9.470;2023-07-08T02:53:55;96626.00;;;23.76;37.64
55271;BME280;41132;47.162;9.470;2023-07-08T02:56:20;96648.03;;;23.78;37.48
55271;BME280;41132;47.162;9.470;2023-07-08T02:58:48;96640.22;;;23.65;37.02
55271;BME280;41132;47.162;9.470;2023-07-08T03:01:13;96665.00;;;23.72;38.49
55271;BME280;41132;47.162;9.470;2023-07-08T03:03:43;96654.31;;;23.60;40.14
55271;BME280;41132;47.162;9.470;2023-07-08T03:06:09;96646.72;;;23.45;40.78
55271;BME280;41132;47.162;9.470;2023-07-08T03:08:34;96668.06;;;23.40;41.25
55271;BME280;41132;47.162;9.470;2023-07-08T03:11:02;96657.69;;;23.20;41.34
55271;BME280;41132;47.162;9.470;2023-07-08T03:13:28;96657.78;;;23.13;42.43
55271;BME280;41132;47.162;9.470;2023-07-08T03:15:54;96672.94;;;23.20;41.98
55271;BME280;41132;47.162;9.470;2023-07-08T03:18:20;96655.31;;;23.00;42.80
55271;BME280;41132;47.162;9.470;2023-07-08T03:20:48;96681.66;;;23.03;43.10
55271;BME280;41132;47.162;9.470;2023-07-08T03:23:14;96681.88;;;23.02;43.92
55271;BME280;41132;47.162;9.470;2023-07-08T03:25:40;96658.53;;;22.79;45.70
55271;BME280;41132;47.162;9.470;2023-07-08T03:28:06;96682.13;;;22.82;45.31
55271;BME280;41132;47.162;9.470;2023-07-08T03:30:33;96691.22;;;22.81;44.92
55271;BME280;41132;47.162;9.470;2023-07-08T03:32:59;96691.31;;;22.74;43.71
55271;BME280;41132;47.162;9.470;2023-07-08T03:35:25;96667.53;;;22.54;45.25
55271;BME280;41132;47.162;9.470;2023-07-08T03:37:52;96699.53;;;22.61;45.90
55271;BME280;41132;47.162;9.470;2023-07-08T03:40:17;96705.69;;;22.61;44.84
55271;BME280;41132;47.162;9.470;2023-07-08T03:42:43;96711.50;;;22.58;46.26
55271;BME280;41132;47.162;9.470;2023-07-08T03:45:09;96702.28;;;22.54;47.42
55271;BME280;41132;47.162;9.470;2023-07-08T03:47:34;96706.31;;;22.45;48.83
55271;BME280;41132;47.162;9.470;2023-07-08T03:50:00;96697.44;;;22.33;48.69
55271;BME280;41132;47.162;9.470;2023-07-08T03:52:25;96696.53;;;22.20;49.52
55271;BME280;41132;47.162;9.470;2023-07-08T03:54:50;96716.81;;;22.28;49.47
55271;BME280;41132;47.162;9.470;2023-07-08T03:57:16;96718.53;;;22.22;50.14
55271;BME280;41132;47.162;9.470;2023-07-08T03:59:41;96694.84;;;22.07;50.03
55271;BME280;41132;47.162;9.470;2023-07-08T04:02:10;96717.75;;;22.15;51.38
55271;BME280;41132;47.162;9.470;2023-07-08T04:04:35;96715.63;;;22.05;52.81
55271;BME280;41132;47.162;9.470;2023-07-08T04:07:03;96723.19;;;22.08;51.67
55271;BME280;41132;47.162;9.470;2023-07-08T04:09:29;96697.94;;;21.86;50.94
55271;BME280;41132;47.162;9.470;2023-07-08T04:11:54;96711.38;;;21.98;51.03
55271;BME280;41132;47.162;9.470;2023-07-08T04:14:20;96710.78;;;21.96;51.28
55271;BME280;41132;47.162;9.470;2023-07-08T04:16:55;96713.38;;;21.84;53.14
55271;BME280;41132;47.162;9.470;2023-07-08T04:19:23;96720.97;;;21.87;51.30
55271;BME280;41132;47.162;9.470;2023-07-08T04:21:49;96710.56;;;21.79;51.80
55271;BME280;41132;47.162;9.470;2023-07-08T04:24:16;96721.38;;;21.84;53.15
55271;BME280;41132;47.162;9.470;2023-07-08T04:26:43;96704.09;;;21.68;53.67
55271;BME280;41132;47.162;9.470;2023-07-08T04:29:22;96739.06;;;21.85;52.17
55271;BME280;41132;47.162;9.470;2023-07-08T04:31:48;96732.88;;;21.84;54.24
55271;BME280;41132;47.162;9.470;2023-07-08T04:34:15;96738.09;;;21.79;55.82
55271;BME280;41132;47.162;9.470;2023-07-08T04:36:41;96741.63;;;21.73;55.25
55271;BME280;41132;47.162;9.470;2023-07-08T04:39:08;96746.00;;;21.67;58.37
55271;BME280;41132;47.162;9.470;2023-07-08T04:41:36;96739.25;;;21.65;59.74
55271;BME280;41132;47.162;9.470;2023-07-08T04:44:06;96749.56;;;21.61;60.84
55271;BME280;41132;47.162;9.470;2023-07-08T04:46:36;96751.16;;;21.69;60.85
55271;BME280;41132;47.162;9.470;2023-07-08T04:49:04;96751.34;;;21.67;61.21
55271;BME280;41132;47.162;9.470;2023-07-08T04:51:31;96747.06;;;21.66;61.98
55271;BME280;41132;47.162;9.470;2023-07-08T04:53:56;96730.03;;;21.61;61.88
55271;BME280;41132;47.162;9.470;2023-07-08T04:56:22;96751.88;;;21.76;60.68
55271;BME280;41132;47.162;9.470;2023-07-08T04:58:48;96757.84;;;21.78;58.59
55271;BME280;41132;47.162;9.470;2023-07-08T05:01:14;96754.84;;;21.86;59.74
55271;BME280;41132;47.162;9.470;2023-07-08T05:03:39;96734.81;;;21.77;58.06
55271;BME280;41132;47.162;9.470;2023-07-08T05:06:05;96742.75;;;21.84;58.90
55271;BME280;41132;47.162;9.470;2023-07-08T05:08:30;96756.66;;;21.93;60.51
55271;BME280;41132;47.162;9.470;2023-07-08T05:10:56;96761.84;;;21.87;63.47
55271;BME280;41132;47.162;9.470;2023-07-08T05:13:21;96730.72;;;21.75;60.86
55271;BME280;41132;47.162;9.470;2023-07-08T05:15:48;96752.63;;;21.83;64.23
55271;BME280;41132;47.162;9.470;2023-07-08T05:18:13;96757.97;;;21.83;65.45
55271;BME280;41132;47.162;9.470;2023-07-08T05:20:38;96750.69;;;21.72;70.66
55271;BME280;41132;47.162;9.470;2023-07-08T05:23:04;96752.41;;;21.66;73.11
55271;BME280;41132;47.162;9.470;2023-07-08T05:25:32;96763.00;;;21.73;73.23
55271;BME280;41132;47.162;9.470;2023-07-08T05:27:57;96774.16;;;21.88;66.59
55271;BME280;41132;47.162;9.470;2023-07-08T05:30:23;96766.00;;;21.83;65.55
55271;BME280;41132;47.162;9.470;2023-07-08T05:32:48;96780.69;;;21.93;70.79
55271;BME280;41132;47.162;9.470;2023-07-08T05:35:13;96775.81;;;21.89;73.04
55271;BME280;41132;47.162;9.470;2023-07-08T05:37:39;96781.50;;;21.93;62.84
55271;BME280;41132;47.162;9.470;2023-07-08T05:40:06;96767.06;;;22.01;64.10
55271;BME280;41132;47.162;9.470;2023-07-08T05:42:33;96765.28;;;21.95;62.88
55271;BME280;41132;47.162;9.470;2023-07-08T05:44:58;96737.81;;;21.87;66.53
55271;BME280;41132;47.162;9.470;2023-07-08T05:47:24;96781.75;;;22.10;71.07
55271;BME280;41132;47.162;9.470;2023-07-08T05:49:49;96780.66;;;22.18;69.65
55271;BME280;41132;47.162;9.470;2023-07-08T05:52:15;96781.31;;;22.13;56.07
55271;BME280;41132;47.162;9.470;2023-07-08T05:54:41;96780.19;;;22.21;56.14
55271;BME280;41132;47.162;9.470;2023-07-08T05:57:08;96783.53;;;22.16;54.26
55271;BME280;41132;47.162;9.470;2023-07-08T05:59:35;96780.66;;;22.18;55.16
55271;BME280;41132;47.162;9.470;2023-07-08T06:02:02;96785.34;;;22.22;55.93
55271;BME280;41132;47.162;9.470;2023-07-08T06:04:27;96785.88;;;22.31;58.30
55271;BME280;41132;47.162;9.470;2023-07-08T06:06:53;96796.84;;;22.41;62.73
55271;BME280;41132;47.162;9.470;2023-07-08T06:09:18;96792.47;;;22.47;61.67
55271;BME280;41132;47.162;9.470;2023-07-08T06:11:44;96785.47;;;22.46;60.41
55271;BME280;41132;47.162;9.470;2023-07-08T06:14:09;96801.69;;;22.51;51.03
55271;BME280;41132;47.162;9.470;2023-07-08T06:16:35;96801.84;;;22.38;49.71
55271;BME280;41132;47.162;9.470;2023-07-08T06:19:00;96806.59;;;22.36;49.99
55271;BME280;41132;47.162;9.470;2023-07-08T06:21:26;96815.28;;;22.31;50.23
55271;BME280;41132;47.162;9.470;2023-07-08T06:23:54;96794.00;;;21.99;50.80
55271;BME280;41132;47.162;9.470;2023-07-08T06:26:22;96807.78;;;22.21;50.75
55271;BME280;41132;47.162;9.470;2023-07-08T06:28:49;96799.78;;;22.21;50.82
55271;BME280;41132;47.162;9.470;2023-07-08T06:31:14;96819.28;;;22.40;49.34
55271;BME280;41132;47.162;9.470;2023-07-08T06:33:39;96817.75;;;22.51;49.95
55271;BME280;41132;47.162;9.470;2023-07-08T06:36:05;96830.97;;;23.13;48.35
55271;BME280;41132;47.162;9.470;2023-07-08T06:38:32;96826.59;;;23.84;47.08
55271;BME280;41132;47.162;9.470;2023-07-08T06:40:57;96828.59;;;23.89;46.71
55271;BME280;41132;47.162;9.470;2023-07-08T06:43:22;96827.84;;;24.76;46.71
55271;BME280;41132;47.162;9.470;2023-07-08T06:45:48;96830.72;;;25.89;46.00
55271;BME280;41132;47.162;9.470;2023-07-08T06:48:13;96827.84;;;26.96;43.29
55271;BME280;41132;47.162;9.470;2023-07-08T06:50:41;96831.91;;;27.80;42.26
55271;BME280;41132;47.162;9.470;2023-07-08T06:53:07;96830.75;;;28.03;39.49
55271;BME280;41132;47.162;9.470;2023-07-08T06:55:33;96810.13;;;28.82;37.95
55271;BME280;41132;47.162;9.470;2023-07-08T06:57:58;96819.25;;;29.69;39.54
55271;BME280;41132;47.162;9.470;2023-07-08T07:00:23;96837.50;;;30.70;36.85
55271;BME280;41132;47.162;9.470;2023-07-08T07:02:49;96822.66;;;30.52;37.20
55271;BME280;41132;47.162;9.470;2023-07-08T07:05:14;96815.88;;;31.19;35.35
55271;BME280;41132;47.162;9.470;2023-07-08T07:07:39;96832.03;;;31.79;34.97
55271;BME280;41132;47.162;9.470;2023-07-08T07:10:05;96843.03;;;32.28;32.82
55271;BME280;41132;47.162;9.470;2023-07-08T07:12:33;96844.03;;;32.37;33.42
55271;BME280;41132;47.162;9.470;2023-07-08T07:14:58;96849.22;;;32.81;34.29
55271;BME280;41132;47.162;9.470;2023-07-08T07:17:24;96843.22;;;33.08;32.38
55271;BME280;41132;47.162;9.470;2023-07-08T07:19:50;96846.75;;;33.28;30.24
55271;BME280;41132;47.162;9.470;2023-07-08T07:22:16;96827.47;;;32.62;29.72
55271;BME280;41132;47.162;9.470;2023-07-08T07:24:41;96838.97;;;31.91;31.47
55271;BME280;41132;47.162;9.470;2023-07-08T07:27:08;96833.06;;;32.18;31.80
55271;BME280;41132;47.162;9.470;2023-07-08T07:29:45;96839.00;;;32.20;30.78
55271;BME280;41132;47.162;9.470;2023-07-08T07:32:12;96826.75;;;32.76;29.23
55271;BME280;41132;47.162;9.470;2023-07-08T07:34:38;96835.66;;;33.43;32.01
55271;BME280;41132;47.162;9.470;2023-07-08T07:37:06;96844.22;;;32.45;32.34
55271;BME280;41132;47.162;9.470;2023-07-08T07:39:31;96827.09;;;31.87;32.45
55271;BME280;41132;47.162;9.470;2023-07-08T07:41:57;96840.97;;;31.40;31.11
55271;BME280;41132;47.162;9.470;2023-07-08T07:44:22;96839.00;;;31.07;30.39
55271;BME280;41132;47.162;9.470;2023-07-08T07:46:48;96849.19;;;30.60;31.50
55271;BME280;41132;47.162;9.470;2023-07-08T07:49:13;96828.16;;;29.75;32.60
55271;BME280;41132;47.162;9.470;2023-07-08T07:51:39;96831.41;;;29.67;32.83
55271;BME280;41132;47.162;9.470;2023-07-08T07:54:04;96818.69;;;29.47;33.70
55271;BME280;41132;47.162;9.470;2023-07-08T07:56:30;96836.25;;;28.66;34.62
55271;BME280;41132;47.162;9.470;2023-07-08T07:58:55;96842.69;;;28.12;35.75
55271;BME280;41132;47.162;9.470;2023-07-08T08:01:20;96824.13;;;28.21;36.52
55271;BME280;41132;47.162;9.470;2023-07-08T08:03:48;96804.38;;;28.10;37.05
55271;BME280;41132;47.162;9.470;2023-07-08T08:06:15;96828.34;;;27.74;37.89
55271;BME280;41132;47.162;9.470;2023-07-08T08:08:43;96832.19;;;27.83;39.37
55271;BME280;41132;47.162;9.470;2023-07-08T08:11:08;96814.16;;;27.57;38.71
55271;BME280;41132;47.162;9.470;2023-07-08T08:13:34;96816.47;;;27.43;40.38
55271;BME280;41132;47.162;9.470;2023-07-08T08:16:00;96827.66;;;27.29;38.03
55271;BME280;41132;47.162;9.470;2023-07-08T08:18:26;96828.72;;;27.23;39.63
55271;BME280;41132;47.162;9.470;2023-07-08T08:20:51;96828.00;;;27.11;38.75
55271;BME280;41132;47.162;9.470;2023-07-08T08:23:16;96824.84;;;26.92;39.27
55271;BME280;41132;47.162;9.470;2023-07-08T08:25:42;96834.09;;;27.01;39.58
55271;BME280;41132;47.162;9.470;2023-07-08T08:28:07;96829.31;;;27.08;39.75
55271;BME280;41132;47.162;9.470;2023-07-08T08:30:34;96827.22;;;27.16;40.42
55271;BME280;41132;47.162;9.470;2023-07-08T08:33:00;96833.66;;;26.87;40.10
55271;BME280;41132;47.162;9.470;2023-07-08T08:35:26;96830.66;;;26.84;40.74
55271;BME280;41132;47.162;9.470;2023-07-08T08:37:52;96830.75;;;26.89;41.63
55271;BME280;41132;47.162;9.470;2023-07-08T08:40:19;96826.81;;;27.02;42.00
55271;BME280;41132;47.162;9.470;2023-07-08T08:43:00;96825.06;;;26.91;42.92
55271;BME280;41132;47.162;9.470;2023-07-08T08:45:27;96830.03;;;26.99;42.56
55271;BME280;41132;47.162;9.470;2023-07-08T08:47:58;96826.25;;;27.00;44.38
55271;BME280;41132;47.162;9.470;2023-07-08T08:53:10;96828.00;;;27.65;43.94
55271;BME280;41132;47.162;9.470;2023-07-08T08:55:36;96824.47;;;27.92;44.03
55271;BME280;41132;47.162;9.470;2023-07-08T08:58:29;96829.47;;;28.16;41.42
55271;BME280;41132;47.162;9.470;2023-07-08T09:01:00;96823.53;;;28.14;42.84
55271;BME280;41132;47.162;9.470;2023-07-08T09:03:52;96830.56;;;28.15;43.49
55271;BME280;41132;47.162;9.470;2023-07-08T09:06:28;96825.81;;;27.89;43.50
55271;BME280;41132;47.162;9.470;2023-07-08T09:08:56;96816.94;;;27.94;45.28
55271;BME280;41132;47.162;9.470;2023-07-08T09:13:59;96811.22;;;27.90;42.62
55271;BME280;41132;47.162;9.470;2023-07-08T09:18:59;96825.97;;;27.78;44.78
55271;BME280;41132;47.162;9.470;2023-07-08T09:21:40;96819.06;;;27.92;44.32
55271;BME280;41132;47.162;9.470;2023-07-08T09:24:26;96815.63;;;28.44;45.95
55271;BME280;41132;47.162;9.470;2023-07-08T09:26:55;96808.38;;;29.33;44.30
55271;BME280;41132;47.162;9.470;2023-07-08T09:29:24;96812.50;;;29.72;41.01
55271;BME280;41132;47.162;9.470;2023-07-08T09:31:49;96812.22;;;30.09;39.58
55271;BME280;41132;47.162;9.470;2023-07-08T09:34:19;96812.19;;;30.19;37.76
55271;BME280;41132;47.162;9.470;2023-07-08T09:36:48;96809.25;;;30.01;36.93
55271;BME280;41132;47.162;9.470;2023-07-08T09:39:16;96805.50;;;30.77;37.91
55271;BME280;41132;47.162;9.470;2023-07-08T09:41:43;96801.28;;;31.15;35.46
55271;BME280;41132;47.162;9.470;2023-07-08T09:46:43;96809.66;;;31.19;35.74
55271;BME280;41132;47.162;9.470;2023-07-08T09:49:15;96803.56;;;30.98;34.77
55271;BME280;41132;47.162;9.470;2023-07-08T09:51:41;96789.75;;;30.94;33.32
55271;BME280;41132;47.162;9.470;2023-07-08T09:54:08;96809.81;;;30.93;32.17
55271;BME280;41132;47.162;9.470;2023-07-08T09:56:33;96791.31;;;30.35;32.13
55271;BME280;41132;47.162;9.470;2023-07-08T09:58:59;96785.41;;;30.08;34.24
55271;BME280;41132;47.162;9.470;2023-07-08T10:01:25;96797.31;;;29.66;34.04
55271;BME280;41132;47.162;9.470;2023-07-08T10:03:57;96804.66;;;29.86;34.25
55271;BME280;41132;47.162;9.470;2023-07-08T10:06:26;96802.19;;;30.10;34.47
55271;BME280;41132;47.162;9.470;2023-07-08T10:09:00;96794.06;;;30.10;33.82
55271;BME280;41132;47.162;9.470;2023-07-08T10:11:40;96795.94;;;30.30;34.88
55271;BME280;41132;47.162;9.470;2023-07-08T10:14:27;96790.13;;;30.67;35.32
55271;BME280;41132;47.162;9.470;2023-07-08T10:16:54;96783.03;;;30.76;35.02
55271;BME280;41132;47.162;9.470;2023-07-08T10:19:21;96775.34;;;31.38;34.20
55271;BME280;41132;47.162;9.470;2023-07-08T10:27:20;96786.94;;;30.50;35.36
55271;BME280;41132;47.162;9.470;2023-07-08T10:30:02;96790.84;;;29.41;34.75
55271;BME280;41132;47.162;9.470;2023-07-08T10:35:21;96787.03;;;29.22;35.23
55271;BME280;41132;47.162;9.470;2023-07-08T10:40:31;96778.94;;;29.98;37.71
55271;BME280;41132;47.162;9.470;2023-07-08T10:57:06;96770.22;;;30.22;34.81
55271;BME280;41132;47.162;9.470;2023-07-08T11:05:02;96759.72;;;29.18;36.42
55271;BME280;41132;47.162;9.470;2023-07-08T11:07:37;96762.72;;;29.52;36.87
55271;BME280;41132;47.162;9.470;2023-07-08T11:10:12;96766.78;;;29.86;36.63
55271;BME280;41132;47.162;9.470;2023-07-08T11:25:48;96737.03;;;29.34;37.26
55271;BME280;41132;47.162;9.470;2023-07-08T11:28:18;96741.94;;;29.68;37.23
55271;BME280;41132;47.162;9.470;2023-07-08T11:30:47;96735.03;;;28.79;37.53
55271;BME280;41132;47.162;9.470;2023-07-08T11:33:17;96730.22;;;28.96;37.78
55271;BME280;41132;47.162;9.470;2023-07-08T11:35:48;96744.53;;;29.07;37.82
55271;BME280;41132;47.162;9.470;2023-07-08T11:38:17;96725.69;;;29.17;38.60
55271;BME280;41132;47.162;9.470;2023-07-08T11:40:53;96728.94;;;29.40;38.96
55271;BME280;41132;47.162;9.470;2023-07-08T11:43:20;96721.91;;;29.28;38.48
55271;BME280;41132;47.162;9.470;2023-07-08T11:45:49;96725.16;;;29.25;39.38
55271;BME280;41132;47.162;9.470;2023-07-08T11:48:24;96729.13;;;28.92;39.02
55271;BME280;41132;47.162;9.470;2023-07-08T11:50:51;96721.00;;;28.77;39.05
55271;BME280;41132;47.162;9.470;2023-07-08T11:55:57;96717.69;;;28.54;38.94
55271;BME280;41132;47.162;9.470;2023-07-08T11:58:29;96719.19;;;28.29;39.25
55271;BME280;41132;47.162;9.470;2023-07-08T12:01:05;96712.97;;;28.24;39.30
55271;BME280;41132;47.162;9.470;2023-07-08T12:03:50;96710.31;;;28.34;38.94
55271;BME280;41132;47.162;9.470;2023-07-08T12:08:54;96709.47;;;28.23;38.97
55271;BME280;41132;47.162;9.470;2023-07-08T12:11:26;96698.38;;;28.20;38.27
55271;BME280;41132;47.162;9.470;2023-07-08T12:13:54;96702.19;;;28.29;39.18
55271;BME280;41132;47.162;9.470;2023-07-08T12:16:21;96688.38;;;28.15;38.72
55271;BME280;41132;47.162;9.470;2023-07-08T12:18:48;96694.06;;;28.19;39.65
55271;BME280;41132;47.162;9.470;2023-07-08T12:21:15;96686.25;;;28.22;41.13
55271;BME280;41132;47.162;9.470;2023-07-08T12:23:45;96692.72;;;28.21;39.52
55271;BME280;41132;47.162;9.470;2023-07-08T12:26:11;96697.09;;;28.32;39.16
55271;BME280;41132;47.162;9.470;2023-07-08T12:28:38;96697.66;;;28.40;40.36
55271;BME280;41132;47.162;9.470;2023-07-08T12:31:15;96690.19;;;28.67;39.52
55271;BME280;41132;47.162;9.470;2023-07-08T12:33:41;96688.06;;;28.85;39.86
55271;BME280;41132;47.162;9.470;2023-07-08T12:36:10;96688.91;;;28.96;39.71
55271;BME280;41132;47.162;9.470;2023-07-08T12:38:38;96694.00;;;28.77;38.98
55271;BME280;41132;47.162;9.470;2023-07-08T12:41:17;96686.19;;;28.85;37.87
55271;BME280;41132;47.162;9.470;2023-07-08T12:43:43;96689.94;;;28.69;37.35
55271;BME280;41132;47.162;9.470;2023-07-08T12:46:10;96692.91;;;28.72;36.98
55271;BME280;41132;47.162;9.470;2023-07-08T12:48:39;96698.00;;;28.59;37.24
55271;BME280;41132;47.162;9.470;2023-07-08T12:51:06;96688.84;;;28.75;38.13
55271;BME280;41132;47.162;9.470;2023-07-08T12:53:35;96686.94;;;28.70;37.60
55271;BME280;41132;47.162;9.470;2023-07-08T12:56:01;96683.22;;;28.87;37.22
55271;BME280;41132;47.162;9.470;2023-07-08T12:58:32;96687.25;;;28.69;36.80
55271;BME280;41132;47.162;9.470;2023-07-08T13:00:59;96686.69;;;28.62;37.17
55271;BME280;41132;47.162;9.470;2023-07-08T13:03:30;96684.53;;;28.69;36.55
55271;BME280;41132;47.162;9.470;2023-07-08T13:06:00;96689.41;;;28.77;35.88
55271;BME280;41132;47.162;9.470;2023-07-08T13:08:29;96690.75;;;28.74;36.58
55271;BME280;41132;47.162;9.470;2023-07-08T13:10:58;96697.50;;;28.72;37.21
55271;BME280;41132;47.162;9.470;2023-07-08T13:13:27;96700.78;;;28.89;40.97
55271;BME280;41132;47.162;9.470;2023-07-08T13:15:54;96703.16;;;28.70;41.64
55271;BME280;41132;47.162;9.470;2023-07-08T13:18:38;96688.59;;;28.71;41.47
55271;BME280;41132;47.162;9.470;2023-07-08T13:21:07;96700.19;;;28.72;42.63
55271;BME280;41132;47.162;9.470;2023-07-08T13:23:35;96691.84;;;28.68;42.42
55271;BME280;41132;47.162;9.470;2023-07-08T13:26:01;96686.69;;;28.62;42.36
55271;BME280;41132;47.162;9.470;2023-07-08T13:28:38;96697.97;;;28.48;42.54
55271;BME280;41132;47.162;9.470;2023-07-08T13:31:18;96698.25;;;28.47;42.61
55271;BME280;41132;47.162;9.470;2023-07-08T13:33:52;96695.75;;;28.45;43.22
55271;BME280;41132;47.162;9.470;2023-07-08T13:36:22;96707.59;;;28.34;42.47
55271;BME280;41132;47.162;9.470;2023-07-08T13:38:48;96698.41;;;28.25;43.03
55271;BME280;41132;47.162;9.470;2023-07-08T13:41:21;96707.28;;;28.20;42.52
55271;BME280;41132;47.162;9.470;2023-07-08T13:43:47;96693.84;;;28.25;43.68
55271;BME280;41132;47.162;9.470;2023-07-08T13:49:02;96705.97;;;28.28;43.18
55271;BME280;41132;47.162;9.470;2023-07-08T13:51:31;96700.81;;;28.21;43.00
55271;BME280;41132;47.162;9.470;2023-07-08T13:54:00;96705.66;;;28.14;43.39
55271;BME280;41132;47.162;9.470;2023-07-08T13:56:31;96700.22;;;28.09;43.44
55271;BME280;41132;47.162;9.470;2023-07-08T13:59:04;96704.81;;;28.08;41.85
55271;BME280;41132;47.162;9.470;2023-07-08T14:01:31;96704.56;;;28.15;42.68
55271;BME280;41132;47.162;9.470;2023-07-08T14:03:57;96707.28;;;28.20;43.79
55271;BME280;41132;47.162;9.470;2023-07-08T14:06:36;96694.63;;;28.21;43.58